Gillette, WY

5:35 AM MDT on April 27, 2015 (GMT -0600)
Gillette-Campbell County | | Change Station
CLOSE
Current Station
Airport
Location: Gillette,
Elevation: 4364 ft
Nearby Weather Stations

Elev 4364 ft 44.34 °N, 105.54 °W | Updated 42 minutes ago

Snow
Snow
34 °F
Feels Like 28 °F
N
7
Wind Variable Wind from NNW

Today
High -- | Low -- °F
--% Chance of Precip.
Yesterday
High -- | Low -- °F
Precip. -- in
5:59 AM 8:02 PM
Waxing Gibbous, 64% visible
Pressure 30.29 in
Visibility 8.0 miles
Clouds Overcast 500 ft
Windchill 28 °F
Dew Point 32 °F
Humidity 92%
Rainfall 0.01 in
Snow Depth Not available.
UV 0 out of 12
Pollen 6.30 out of 12
Air Quality Not available.
Flu Activity Local Activity
METAR KGCC 271053Z AUTO 34006KT 8SM -SN OVC005 01/00 A3024 RMK AO2 SNB50 SLP257 P0000 T00110000

More Conditions Fewer Conditions

Pressure 30.29 in
Visibility 8.0 miles
Clouds Overcast 500 ft
Windchill 28 °F
Dew Point 32 °F
Humidity 92%
Rainfall 0.01 in
Snow Depth Not available.
UV 0 out of 12
Pollen 6.30 out of 12
Air Quality Not available.
Flu Activity Local Activity
METAR KGCC 271053Z AUTO 34006KT 8SM -SN OVC005 01/00 A3024 RMK AO2 SNB50 SLP257 P0000 T00110000

More Conditions Fewer Conditions

10-Day Weather Forecast

Almanac

Astronomy

Apr. 27, 2015 Rise Set
Actual Time
Civil Twilight
Nautical Twilight
Astronomical Twilight
Moon
Length of Visible Light
Length of Day
Tomorrow will be .
, % of the Moon is Illuminated

Today's Extremes

State Highs State Lows

Community

WunderPhotos

Upload Photos

1,817,283 photos uploaded!

WunderBlogs® & News

Nearby

Air Quality

  Air Quality AQ Index Pollutant
Not available.

Snow Depth

Station Depth Elevation

Earthquake Activity

City Distance Mag. Time & Date
Minimum magnitude displayed is 2.5.

Coastal Water Temperatures

Place Temperature

Stations

Nearby Weather Stations

Station Location Temp. Windchill Dew Point Humidity Wind Precip. Elev Updated Type